Time;durP1;ratioP1;P1;durP2;ratioP2;P2;SDS_P1;SDS_P2;PMS_P1;PMS_P2;Temp;Humidity;BMP_temperature;BMP_pressure;BME280_temperature;BME280_humidity;BME280_pressure;Samples;Min_cycle;Max_cycle;Signal;HPM_P1;HPM_P2
2024/01/09 00:01:43;;;;;;;5.65;2.70;;;;;;;-3.71;100.00;103767.19;5035452;28;20056;-74
2024/01/09 00:04:30;;;;;;;5.00;2.15;;;;;;;-3.73;100.00;103773.97;5047943;28;20175;-74
2024/01/09 00:07:18;;;;;;;2.72;2.00;;;;;;;-3.75;100.00;103762.63;5044056;28;20044;-73
2024/01/09 00:10:06;;;;;;;4.43;2.20;;;;;;;-3.76;100.00;103760.81;5048335;28;20074;-74
2024/01/09 00:12:52;;;;;;;4.25;2.45;;;;;;;-3.77;100.00;103768.53;5047984;28;20184;-74
2024/01/09 00:15:38;;;;;;;4.97;2.63;;;;;;;-3.80;100.00;103758.88;5048673;28;20186;-73
2024/01/09 00:18:25;;;;;;;3.42;1.95;;;;;;;-3.81;100.00;103764.84;5037201;28;20099;-74
2024/01/09 00:21:11;;;;;;;4.60;2.25;;;;;;;-3.82;100.00;103760.44;5045383;28;20049;-74
2024/01/09 00:23:57;;;;;;;4.93;2.33;;;;;;;-3.85;100.00;103760.28;5047624;28;20127;-74
2024/01/09 00:26:45;;;;;;;3.13;2.10;;;;;;;-3.86;100.00;103755.91;5047516;28;20055;-73
2024/01/09 00:29:33;;;;;;;5.55;2.30;;;;;;;-3.89;100.00;103759.19;5049460;28;20051;-73
2024/01/09 00:32:18;;;;;;;5.45;2.20;;;;;;;-3.90;100.00;103759.09;5053624;28;20067;-73
2024/01/09 00:35:05;;;;;;;5.50;2.20;;;;;;;-3.93;100.00;103745.97;5052231;28;20047;-73
2024/01/09 00:37:51;;;;;;;3.50;2.20;;;;;;;-3.94;100.00;103747.66;5040568;28;20048;-74
2024/01/09 00:40:36;;;;;;;3.22;2.10;;;;;;;-3.95;100.00;103751.03;5056435;28;20127;-73
2024/01/09 00:43:22;;;;;;;3.35;2.00;;;;;;;-3.97;100.00;103750.06;5053612;28;20051;-74
2024/01/09 00:46:08;;;;;;;3.63;2.00;;;;;;;-3.99;100.00;103747.38;5042768;28;20033;-74
2024/01/09 00:48:54;;;;;;;4.63;2.20;;;;;;;-4.00;100.00;103745.59;5055205;28;20045;-73
2024/01/09 00:51:39;;;;;;;4.72;2.03;;;;;;;-4.01;100.00;103737.72;5027813;28;20055;-73
2024/01/09 00:54:25;;;;;;;5.78;2.50;;;;;;;-4.02;100.00;103744.59;5042655;28;20108;-73
2024/01/09 00:57:11;;;;;;;6.05;2.70;;;;;;;-4.05;100.00;103734.03;5053729;28;20040;-73
2024/01/09 00:59:57;;;;;;;5.00;2.03;;;;;;;-4.05;100.00;103741.81;5053160;28;20606;-73
2024/01/09 01:02:42;;;;;;;5.28;2.30;;;;;;;-4.07;100.00;103733.06;5053826;28;20138;-73
2024/01/09 01:05:28;;;;;;;4.13;2.80;;;;;;;-4.10;100.00;103738.94;5054139;28;20063;-73
2024/01/09 01:08:14;;;;;;;4.77;2.57;;;;;;;-4.12;100.00;103737.97;5054370;28;20055;-73
2024/01/09 01:11:00;;;;;;;3.23;1.93;;;;;;;-4.12;100.00;103731.88;5055273;28;20216;-73
2024/01/09 01:13:46;;;;;;;5.07;1.77;;;;;;;-4.13;100.00;103737.84;5054435;28;20052;-73
2024/01/09 01:16:32;;;;;;;5.10;2.60;;;;;;;-4.14;100.00;103738.66;5043755;28;20114;-73
2024/01/09 01:19:18;;;;;;;3.08;2.00;;;;;;;-4.14;100.00;103725.72;5053961;28;20508;-73
2024/01/09 01:22:04;;;;;;;4.17;2.33;;;;;;;-4.15;100.00;103740.34;5053884;28;20052;-73
2024/01/09 01:24:49;;;;;;;3.90;2.20;;;;;;;-4.15;100.00;103731.69;5041807;28;20041;-73
2024/01/09 01:27:35;;;;;;;4.67;2.47;;;;;;;-4.15;100.00;103737.75;5053023;28;20048;-73
2024/01/09 01:30:21;;;;;;;3.17;1.97;;;;;;;-4.15;100.00;103734.28;5054749;28;20573;-73
2024/01/09 01:33:07;;;;;;;3.55;2.00;;;;;;;-4.17;100.00;103721.25;5053781;28;20045;-73
2024/01/09 01:35:52;;;;;;;3.17;2.07;;;;;;;-4.19;100.00;103732.28;5042349;28;20032;-74
2024/01/09 01:38:38;;;;;;;4.93;2.20;;;;;;;-4.23;100.00;103739.84;5053986;28;20562;-74
2024/01/09 01:41:24;;;;;;;3.97;2.10;;;;;;;-4.23;100.00;103734.69;5039575;28;20745;-73
2024/01/09 01:44:17;;;;;;;3.00;2.03;;;;;;;-4.25;100.00;103733.69;5050023;28;20413;-73
2024/01/09 01:47:03;;;;;;;6.15;2.33;;;;;;;-4.27;100.00;103735.31;5050758;28;20593;-73
2024/01/09 01:49:49;;;;;;;3.50;2.23;;;;;;;-4.27;100.00;103735.31;5021155;28;20630;-74
2024/01/09 01:52:35;;;;;;;5.80;2.50;;;;;;;-4.28;100.00;103737.78;5049206;28;20487;-73
2024/01/09 01:55:24;;;;;;;2.73;1.87;;;;;;;-4.31;100.00;103737.59;5047691;28;20130;-74
2024/01/09 01:58:14;;;;;;;4.70;2.40;;;;;;;-4.34;100.00;103738.31;5038119;28;20136;-73
2024/01/09 02:01:00;;;;;;;5.80;2.67;;;;;;;-4.36;100.00;103737.31;5039023;28;20122;-74
2024/01/09 02:03:46;;;;;;;3.20;2.17;;;;;;;-4.34;100.00;103737.41;5047891;28;20048;-74
2024/01/09 02:06:33;;;;;;;4.68;1.95;;;;;;;-4.36;100.00;103729.56;5048641;28;21051;-73
2024/01/09 02:09:19;;;;;;;2.87;1.60;;;;;;;-4.36;100.00;103732.16;5033020;28;20072;-74
2024/01/09 02:12:06;;;;;;;5.45;2.45;;;;;;;-4.38;100.00;103737.22;5049367;28;20388;-74
2024/01/09 02:14:51;;;;;;;3.87;2.10;;;;;;;-4.37;100.00;103732.91;5050355;28;20116;-74
2024/01/09 02:17:38;;;;;;;4.57;2.47;;;;;;;-4.40;100.00;103722.38;5047437;28;20659;-74
2024/01/09 02:20:24;;;;;;;4.77;2.17;;;;;;;-4.40;100.00;103717.22;5035062;28;20044;-73
2024/01/09 02:23:10;;;;;;;4.93;2.40;;;;;;;-4.41;100.00;103725.78;5047489;28;20059;-73
2024/01/09 02:25:57;;;;;;;5.80;2.77;;;;;;;-4.45;100.00;103718.63;5049197;28;20083;-74
2024/01/09 02:28:48;;;;;;;3.73;2.50;;;;;;;-4.46;100.00;103722.00;5036033;28;20036;-73
2024/01/09 02:31:34;;;;;;;4.17;2.27;;;;;;;-4.50;100.00;103716.66;5034211;28;20048;-74
2024/01/09 02:34:20;;;;;;;5.32;2.30;;;;;;;-4.51;100.00;103722.59;5049130;28;20067;-73
2024/01/09 02:37:06;;;;;;;3.47;1.80;;;;;;;-4.52;100.00;103717.34;5038105;28;20048;-73
2024/01/09 02:39:52;;;;;;;5.00;2.30;;;;;;;-4.53;100.00;103710.38;5047791;28;20045;-73
2024/01/09 02:42:38;;;;;;;3.77;2.10;;;;;;;-4.54;100.00;103708.56;5032561;28;20033;-73
2024/01/09 02:45:23;;;;;;;4.53;2.03;;;;;;;-4.55;100.00;103718.03;5037216;28;20044;-71
2024/01/09 02:48:09;;;;;;;4.27;2.20;;;;;;;-4.56;100.00;103705.91;5047239;28;20044;-71
2024/01/09 02:50:55;;;;;;;3.63;2.13;;;;;;;-4.58;100.00;103712.66;5048325;28;20055;-71
2024/01/09 02:53:40;;;;;;;3.97;2.20;;;;;;;-4.59;100.00;103705.69;5039145;28;20045;-71
2024/01/09 02:56:27;;;;;;;3.97;2.00;;;;;;;-4.61;100.00;103707.31;5036893;28;20060;-72
2024/01/09 02:59:12;;;;;;;5.93;2.17;;;;;;;-4.60;100.00;103718.53;5047211;28;20059;-71
2024/01/09 03:01:58;;;;;;;2.83;2.00;;;;;;;-4.61;100.00;103709.88;5049023;28;20080;-72
2024/01/09 03:04:44;;;;;;;6.30;2.00;;;;;;;-4.63;100.00;103709.78;5049714;28;20059;-71
2024/01/09 03:07:30;;;;;;;4.03;2.10;;;;;;;-4.65;100.00;103711.38;5047910;28;20604;-71
2024/01/09 03:10:15;;;;;;;3.77;2.13;;;;;;;-4.66;100.00;103712.19;5037191;28;20041;-72
2024/01/09 03:13:01;;;;;;;5.20;2.40;;;;;;;-4.68;100.00;103711.16;5037782;28;20092;-72
2024/01/09 03:15:47;;;;;;;2.33;1.93;;;;;;;-4.69;100.00;103709.38;5029730;28;20056;-72
2024/01/09 03:18:33;;;;;;;5.37;2.20;;;;;;;-4.70;100.00;103712.78;5049844;28;20140;-72
2024/01/09 03:21:19;;;;;;;4.67;2.23;;;;;;;-4.70;100.00;103712.78;5047098;28;20052;-72
2024/01/09 03:24:04;;;;;;;2.67;1.67;;;;;;;-4.72;100.00;103709.22;5026189;28;20747;-72
2024/01/09 03:26:50;;;;;;;6.90;2.40;;;;;;;-4.72;100.00;103718.63;5046944;28;20053;-73
2024/01/09 03:29:36;;;;;;;4.63;2.27;;;;;;;-4.77;100.00;103708.91;5018680;28;20511;-72
2024/01/09 03:32:21;;;;;;;5.40;2.58;;;;;;;-4.77;100.00;103711.50;5047571;28;20084;-72
2024/01/09 03:35:07;;;;;;;9.00;2.00;;;;;;;-4.78;100.00;103706.22;5037324;28;20040;-72
2024/01/09 03:37:53;;;;;;;5.40;2.37;;;;;;;-4.79;100.00;103707.91;5046738;28;20040;-72
2024/01/09 03:40:39;;;;;;;5.30;2.20;;;;;;;-4.81;100.00;103709.50;5035917;28;20048;-72
2024/01/09 03:43:24;;;;;;;5.17;2.50;;;;;;;-4.81;100.00;103716.34;5021237;28;20967;-72
2024/01/09 03:46:10;;;;;;;5.37;2.10;;;;;;;-4.81;100.00;103709.50;5033356;28;20494;-72
2024/01/09 03:48:56;;;;;;;3.43;2.27;;;;;;;-4.84;100.00;103704.16;5045604;28;20048;-72
2024/01/09 03:51:42;;;;;;;2.90;1.90;;;;;;;-4.84;100.00;103711.91;5047320;28;20767;-72
2024/01/09 03:54:27;;;;;;;5.70;2.30;;;;;;;-4.86;100.00;103710.88;5035073;28;20064;-72
2024/01/09 03:57:13;;;;;;;4.07;2.23;;;;;;;-4.85;100.00;103706.63;5045928;28;20173;-72
2024/01/09 03:59:59;;;;;;;2.73;1.77;;;;;;;-4.89;100.00;103714.97;5028449;28;20664;-72
2024/01/09 04:02:44;;;;;;;3.80;1.93;;;;;;;-4.91;100.00;103712.28;5025130;28;20049;-72
2024/01/09 04:05:30;;;;;;;3.33;2.17;;;;;;;-4.93;100.00;103724.22;5035310;28;20495;-72
2024/01/09 04:08:16;;;;;;;4.40;2.20;;;;;;;-4.95;100.00;103712.88;5032487;28;20422;-72
2024/01/09 04:11:03;;;;;;;3.87;2.20;;;;;;;-4.95;100.00;103710.31;5017568;28;20079;-73
2024/01/09 04:13:49;;;;;;;3.60;2.20;;;;;;;-4.98;100.00;103699.75;5033658;28;20044;-72
2024/01/09 04:16:34;;;;;;;4.37;2.40;;;;;;;-4.99;100.00;103705.72;5037034;28;20499;-72
2024/01/09 04:19:20;;;;;;;5.00;2.30;;;;;;;-5.01;100.00;103710.78;5047763;28;20152;-72
2024/01/09 04:22:07;;;;;;;3.70;2.40;;;;;;;-5.01;100.00;103715.06;5038876;28;20049;-72
2024/01/09 04:24:52;;;;;;;3.33;2.00;;;;;;;-5.03;100.00;103711.50;5047500;28;20163;-72
2024/01/09 04:27:38;;;;;;;3.23;1.93;;;;;;;-5.05;100.00;103709.69;5046934;28;20156;-72
2024/01/09 04:30:26;;;;;;;2.33;1.77;;;;;;;-5.06;100.00;103718.22;5047780;28;20074;-72
2024/01/09 04:33:12;;;;;;;7.17;2.00;;;;;;;-5.08;100.00;103719.84;5048613;28;20044;-72
2024/01/09 04:35:57;;;;;;;5.07;2.60;;;;;;;-5.09;100.00;103720.63;5027848;28;20036;-72
2024/01/09 04:38:46;;;;;;;5.27;2.40;;;;;;;-5.11;100.00;103713.56;5046173;28;20076;-72
2024/01/09 04:41:31;;;;;;;2.53;2.10;;;;;;;-5.12;100.00;103716.94;5048009;28;20045;-72
2024/01/09 04:44:17;;;;;;;3.50;2.27;;;;;;;-5.13;100.00;103716.03;5048154;28;20719;-72
2024/01/09 04:47:03;;;;;;;3.23;2.07;;;;;;;-5.12;100.00;103719.53;5047522;28;21019;-72
2024/01/09 04:49:49;;;;;;;2.87;1.90;;;;;;;-5.15;100.00;103715.06;5047834;28;20045;-71
2024/01/09 04:52:36;;;;;;;2.63;1.90;;;;;;;-5.17;100.00;103721.81;5048016;28;20963;-72
2024/01/09 04:55:25;;;;;;;3.73;2.20;;;;;;;-5.19;100.00;103721.72;5035499;28;20052;-72
2024/01/09 04:58:10;;;;;;;3.87;2.27;;;;;;;-5.21;100.00;103712.06;5036824;28;20090;-72
2024/01/09 05:00:56;;;;;;;3.80;1.90;;;;;;;-5.23;100.00;103713.66;5045584;28;20522;-72
2024/01/09 05:03:46;;;;;;;2.03;1.83;;;;;;;-5.24;100.00;103723.09;5046975;28;20048;-73
2024/01/09 05:06:32;;;;;;;3.60;1.80;;;;;;;-5.26;100.00;103728.94;5034656;28;20052;-72
2024/01/09 05:09:18;;;;;;;3.20;1.90;;;;;;;-5.26;100.00;103729.84;5038290;28;20105;-72
2024/01/09 05:12:03;;;;;;;5.00;1.90;;;;;;;-5.26;100.00;103726.34;5036383;28;20591;-72
2024/01/09 05:14:49;;;;;;;4.53;2.50;;;;;;;-5.28;100.00;103726.28;5047634;28;21093;-72
2024/01/09 05:17:35;;;;;;;4.37;1.80;;;;;;;-5.30;100.00;103732.13;5049332;28;20052;-72
2024/01/09 05:20:21;;;;;;;2.90;1.97;;;;;;;-5.32;100.00;103732.00;5049202;28;20041;-72
2024/01/09 05:23:07;;;;;;;4.47;2.20;;;;;;;-5.32;100.00;103725.19;5050907;28;20040;-72
2024/01/09 05:25:53;;;;;;;3.40;1.80;;;;;;;-5.32;100.00;103732.94;5050188;28;20075;-72
2024/01/09 05:28:39;;;;;;;4.27;2.07;;;;;;;-5.31;100.00;103736.38;5018842;28;20193;-72
2024/01/09 05:31:24;;;;;;;3.07;1.83;;;;;;;-5.30;100.00;103732.13;5049276;28;20044;-72
2024/01/09 05:34:10;;;;;;;3.80;1.80;;;;;;;-5.32;100.00;103732.94;5035642;28;20036;-72
2024/01/09 05:36:56;;;;;;;6.37;2.50;;;;;;;-5.35;100.00;103727.53;5036006;28;20751;-72
2024/01/09 05:39:48;;;;;;;9.37;3.17;;;;;;;-5.37;100.00;103726.56;5045407;28;21059;-72
2024/01/09 05:42:34;;;;;;;2.73;1.93;;;;;;;-5.37;100.00;103730.81;5036579;28;20438;-72
2024/01/09 05:45:19;;;;;;;3.03;1.87;;;;;;;-5.36;100.00;103738.66;5037743;28;20071;-72
2024/01/09 05:48:06;;;;;;;4.57;2.20;;;;;;;-5.38;100.00;103742.84;5039279;28;20049;-72
2024/01/09 05:50:52;;;;;;;3.20;2.17;;;;;;;-5.40;100.00;103740.94;5050993;28;20271;-71
2024/01/09 05:53:38;;;;;;;2.90;2.20;;;;;;;-5.40;100.00;103741.81;5049260;28;20048;-72
2024/01/09 05:56:24;;;;;;;4.07;2.07;;;;;;;-5.42;100.00;103737.34;5037332;28;20485;-72
2024/01/09 05:59:12;;;;;;;5.50;2.07;;;;;;;-5.42;100.00;103748.59;5038980;28;22015;-73
2024/01/09 06:01:58;;;;;;;3.70;2.10;;;;;;;-5.42;100.00;103743.41;5037897;28;20041;-73
2024/01/09 06:04:44;;;;;;;4.00;2.13;;;;;;;-5.43;100.00;103744.22;5050866;28;20048;-73
2024/01/09 06:07:32;;;;;;;4.57;2.30;;;;;;;-5.45;100.00;103748.38;5049618;28;20063;-73
2024/01/09 06:10:18;;;;;;;4.70;2.47;;;;;;;-5.46;100.00;103749.16;5049621;28;20040;-72
2024/01/09 06:13:04;;;;;;;3.60;2.50;;;;;;;-5.47;100.00;103752.53;5050382;28;20119;-73
2024/01/09 06:15:49;;;;;;;5.13;2.47;;;;;;;-5.49;100.00;103762.75;5049430;28;20189;-72
2024/01/09 06:18:35;;;;;;;5.33;2.30;;;;;;;-5.51;100.00;103763.47;5049959;28;20293;-72
2024/01/09 06:21:21;;;;;;;3.53;2.10;;;;;;;-5.52;100.00;103759.06;5032938;28;20051;-72
2024/01/09 06:24:07;;;;;;;4.87;2.07;;;;;;;-5.54;100.00;103758.97;5049032;28;20045;-72
2024/01/09 06:26:52;;;;;;;3.13;2.13;;;;;;;-5.55;100.00;103757.19;5050347;28;20036;-72
2024/01/09 06:29:38;;;;;;;2.47;1.73;;;;;;;-5.55;100.00;103762.38;5040391;28;20131;-72
2024/01/09 06:32:24;;;;;;;3.43;1.97;;;;;;;-5.55;100.00;103764.94;5036900;28;20045;-72
2024/01/09 06:35:10;;;;;;;3.43;1.97;;;;;;;-5.54;100.00;103760.66;5032944;28;20044;-73
2024/01/09 06:37:56;;;;;;;4.87;2.07;;;;;;;-5.55;100.00;103767.53;5048297;28;21028;-72
2024/01/09 06:40:41;;;;;;;3.07;2.13;;;;;;;-5.55;100.00;103767.53;5027676;28;20476;-72
2024/01/09 06:43:27;;;;;;;4.83;2.50;;;;;;;-5.56;100.00;103770.88;5048609;28;20241;-72
2024/01/09 06:46:13;;;;;;;4.17;2.10;;;;;;;-5.59;100.00;103752.59;5045747;28;21906;-73
2024/01/09 06:48:59;;;;;;;3.00;1.83;;;;;;;-5.61;100.00;103762.81;5037559;28;20410;-72
2024/01/09 06:51:45;;;;;;;3.67;2.00;;;;;;;-5.63;100.00;103764.41;5037180;28;20127;-73
2024/01/09 06:54:31;;;;;;;5.00;2.40;;;;;;;-5.65;100.00;103763.41;5048358;28;20110;-72
2024/01/09 06:57:17;;;;;;;3.50;2.37;;;;;;;-5.64;100.00;103762.63;5025261;28;20153;-73
2024/01/09 07:00:04;;;;;;;5.27;2.07;;;;;;;-5.65;100.00;103768.56;5035742;28;20044;-72
2024/01/09 07:02:50;;;;;;;3.47;2.23;;;;;;;-5.64;100.00;103777.19;5014943;28;20104;-72
2024/01/09 07:05:35;;;;;;;3.03;1.90;;;;;;;-5.66;100.00;103778.78;5011214;28;20049;-73
2024/01/09 07:08:22;;;;;;;4.27;2.27;;;;;;;-5.68;100.00;103770.94;5007333;28;20608;-72
2024/01/09 07:11:10;;;;;;;3.57;2.20;;;;;;;-5.69;100.00;103775.97;5008499;28;21051;-74
2024/01/09 07:13:56;;;;;;;4.30;2.33;;;;;;;-5.72;100.00;103771.53;5012723;28;20052;-74
2024/01/09 07:16:42;;;;;;;5.73;2.37;;;;;;;-5.74;100.00;103766.25;5007629;28;20053;-74
2024/01/09 07:19:27;;;;;;;3.77;2.00;;;;;;;-5.76;100.00;103772.09;5009520;28;21133;-74
2024/01/09 07:22:13;;;;;;;4.60;1.80;;;;;;;-5.78;100.00;103768.53;5006968;28;20611;-74
2024/01/09 07:24:59;;;;;;;5.03;2.40;;;;;;;-5.80;100.00;103775.22;5008539;28;20053;-74
2024/01/09 07:27:45;;;;;;;4.00;2.10;;;;;;;-5.82;100.00;103780.31;5007258;28;20127;-73
2024/01/09 07:30:31;;;;;;;2.83;2.17;;;;;;;-5.84;100.00;103784.44;4981256;28;20060;-73
2024/01/09 07:33:18;;;;;;;4.23;2.37;;;;;;;-5.87;100.00;103790.28;5003389;28;20175;-73
2024/01/09 07:36:05;;;;;;;5.13;2.23;;;;;;;-5.86;100.00;103788.63;4995981;28;20053;-73
2024/01/09 07:38:51;;;;;;;3.87;2.03;;;;;;;-5.88;100.00;103792.78;5002271;28;20041;-73
2024/01/09 07:41:37;;;;;;;4.40;2.00;;;;;;;-5.88;100.00;103803.13;5002714;28;20056;-73
2024/01/09 07:44:23;;;;;;;4.10;2.00;;;;;;;-5.86;100.00;103804.09;5003590;28;20045;-73
2024/01/09 07:47:11;;;;;;;3.97;2.13;;;;;;;-5.88;100.00;103806.56;5002459;28;20111;-74
2024/01/09 07:49:56;;;;;;;6.33;2.30;;;;;;;-5.89;100.00;103807.38;5003382;28;20528;-73
2024/01/09 07:52:42;;;;;;;6.17;2.67;;;;;;;-5.90;100.00;103810.75;5006335;28;20041;-74
2024/01/09 07:55:28;;;;;;;3.50;2.00;;;;;;;-5.91;100.00;103814.09;5003376;28;21826;-74
2024/01/09 07:58:14;;;;;;;4.37;1.83;;;;;;;-5.91;100.00;103819.28;5008077;28;20051;-75
2024/01/09 08:00:59;;;;;;;5.63;2.30;;;;;;;-5.90;100.00;103815.00;4988975;28;20186;-74
2024/01/09 08:03:45;;;;;;;4.40;2.40;;;;;;;-5.90;100.00;103815.91;5039835;28;20142;-74
2024/01/09 08:06:31;;;;;;;3.70;2.07;;;;;;;-5.89;100.00;103820.25;5041910;28;20045;-74
2024/01/09 08:09:18;;;;;;;4.20;2.33;;;;;;;-5.91;100.00;103814.09;5041699;28;20044;-74
2024/01/09 08:12:04;;;;;;;3.20;1.80;;;;;;;-5.89;100.00;103822.84;5043533;28;20105;-74
2024/01/09 08:14:50;;;;;;;4.60;2.17;;;;;;;-5.90;100.00;103818.47;5038720;28;20105;-73
2024/01/09 08:17:36;;;;;;;5.43;2.30;;;;;;;-5.89;100.00;103822.84;5020596;28;20048;-74
2024/01/09 08:20:22;;;;;;;6.20;2.20;;;;;;;-5.86;100.00;103817.00;5030971;28;21663;-74
2024/01/09 08:23:08;;;;;;;2.90;1.77;;;;;;;-5.87;100.00;103825.53;5019828;28;20045;-75
2024/01/09 08:25:54;;;;;;;4.83;2.60;;;;;;;-5.87;100.00;103826.41;5026950;28;20613;-74
2024/01/09 08:28:39;;;;;;;4.03;2.00;;;;;;;-5.85;100.00;103818.78;5043150;28;20065;-74
2024/01/09 08:31:25;;;;;;;3.87;1.93;;;;;;;-5.85;100.00;103813.63;5042069;28;21909;-74
2024/01/09 08:34:12;;;;;;;2.80;1.90;;;;;;;-5.84;100.00;103820.59;5014860;28;20072;-74
2024/01/09 08:37:01;;;;;;;4.23;2.30;;;;;;;-5.82;100.00;103823.28;5026027;28;20212;-74
2024/01/09 08:39:47;;;;;;;3.40;1.97;;;;;;;-5.80;100.00;103821.69;5009603;28;20962;-74
2024/01/09 08:42:32;;;;;;;6.53;2.50;;;;;;;-5.78;100.00;103810.69;5044028;28;21064;-74
2024/01/09 08:45:18;;;;;;;2.87;1.87;;;;;;;-5.77;100.00;103812.47;5029067;28;20037;-75
2024/01/09 08:48:04;;;;;;;2.67;1.80;;;;;;;-5.75;100.00;103820.34;5044331;28;20756;-75
2024/01/09 08:50:50;;;;;;;3.23;1.80;;;;;;;-5.73;100.00;103816.16;5032541;28;20122;-74
2024/01/09 08:53:36;;;;;;;7.43;2.03;;;;;;;-5.71;100.00;103809.47;5045944;28;20079;-75
2024/01/09 08:56:22;;;;;;;3.30;2.13;;;;;;;-5.65;100.00;103821.88;5047121;28;20438;-75
2024/01/09 08:59:08;;;;;;;3.20;2.20;;;;;;;-5.64;100.00;103815.94;5021069;28;20052;-74
2024/01/09 09:01:54;;;;;;;3.40;2.20;;;;;;;-5.62;100.00;103823.00;5047689;28;20122;-75
2024/01/09 09:04:41;;;;;;;4.10;2.50;;;;;;;-5.60;100.00;103825.69;5047605;28;20122;-76
2024/01/09 09:07:26;;;;;;;4.83;2.67;;;;;;;-5.57;100.00;103822.44;5046979;28;20060;-75
2024/01/09 09:10:16;;;;;;;5.50;2.37;;;;;;;-5.55;100.00;103824.34;5047635;28;20040;-77
2024/01/09 09:13:03;;;;;;;3.60;2.00;;;;;;;-5.53;100.00;103821.84;5046571;28;20049;-76
2024/01/09 09:15:51;;;;;;;3.00;1.80;;;;;;;-5.49;100.00;103826.44;5043222;28;20040;-76
2024/01/09 09:18:37;;;;;;;5.13;2.57;;;;;;;-5.49;100.00;103831.59;5038242;28;20052;-76
2024/01/09 09:21:23;;;;;;;2.87;1.80;;;;;;;-5.49;100.00;103832.47;5017372;28;20056;-76
2024/01/09 09:24:09;;;;;;;2.63;1.80;;;;;;;-5.45;100.00;103831.03;5047070;28;20550;-76
2024/01/09 09:26:55;;;;;;;3.20;2.20;;;;;;;-5.39;100.00;103836.59;5020401;28;20907;-76
2024/01/09 09:29:41;;;;;;;6.07;2.10;;;;;;;-5.35;100.00;103835.13;5030063;28;20174;-76
2024/01/09 09:32:27;;;;;;;4.50;2.00;;;;;;;-5.34;100.00;103835.22;5009752;28;20045;-75
2024/01/09 09:35:13;;;;;;;6.73;2.63;;;;;;;-5.31;100.00;103831.97;5038700;28;20049;-76
2024/01/09 09:37:58;;;;;;;6.53;2.60;;;;;;;-5.28;100.00;103833.88;5035471;28;20462;-76
2024/01/09 09:40:44;;;;;;;4.10;2.40;;;;;;;-5.25;100.00;103831.47;5034775;28;20399;-76
2024/01/09 09:43:32;;;;;;;4.10;2.10;;;;;;;-5.24;100.00;103825.53;5040239;28;20064;-76
2024/01/09 09:46:21;;;;;;;4.03;2.00;;;;;;;-5.22;100.00;103826.53;5021263;28;20044;-75
2024/01/09 09:49:10;;;;;;;3.87;2.17;;;;;;;-5.18;100.00;103836.28;5018711;28;20888;-76
2024/01/09 09:51:57;;;;;;;4.13;2.00;;;;;;;-5.15;100.00;103836.50;5023941;28;20056;-76
2024/01/09 09:54:44;;;;;;;4.10;2.20;;;;;;;-5.12;100.00;103828.94;5025359;28;20052;-76
2024/01/09 09:57:30;;;;;;;5.03;2.07;;;;;;;-5.08;100.00;103828.38;5023158;28;20068;-75
2024/01/09 10:00:18;;;;;;;4.30;2.20;;;;;;;-5.03;100.00;103832.97;5038021;28;20544;-76
2024/01/09 10:03:10;;;;;;;3.97;2.03;;;;;;;-5.00;100.00;103839.22;5013400;28;20049;-74
2024/01/09 10:05:57;;;;;;;5.93;2.00;;;;;;;-4.95;100.00;103837.81;5006161;28;20052;-75
2024/01/09 10:08:43;;;;;;;3.50;2.23;;;;;;;-4.90;100.00;103830.41;5010564;28;20136;-74
2024/01/09 10:11:31;;;;;;;3.83;2.20;;;;;;;-4.87;100.00;103832.28;5003851;28;20136;-75
2024/01/09 10:14:19;;;;;;;3.40;1.77;;;;;;;-4.82;100.00;103830.91;5003928;28;20042;-75
2024/01/09 10:17:05;;;;;;;3.07;2.00;;;;;;;-4.79;100.00;103826.81;5006823;28;20052;-75
2024/01/09 10:19:51;;;;;;;6.27;2.60;;;;;;;-4.75;100.00;103827.03;5003965;28;20041;-75
2024/01/09 10:22:38;;;;;;;3.93;1.90;;;;;;;-4.70;100.00;103817.88;4992922;28;21159;-75
2024/01/09 10:25:24;;;;;;;4.80;2.33;;;;;;;-4.63;100.00;103820.09;5004702;28;20511;-74
2024/01/09 10:28:18;;;;;;;3.97;2.27;;;;;;;-4.60;100.00;103817.72;4996163;28;21414;-74
2024/01/09 10:31:06;;;;;;;3.55;2.00;;;;;;;-4.55;100.00;103820.59;4998809;28;20140;-75
2024/01/09 10:33:54;;;;;;;3.57;2.10;;;;;;;-4.52;100.00;103813.91;5003562;28;20050;-74
2024/01/09 10:36:39;;;;;;;2.70;2.40;;;;;;;-4.48;100.00;103812.44;4999250;28;20084;-74
2024/01/09 10:39:25;;;;;;;4.50;1.93;;;;;;;-4.40;100.00;103818.09;4999689;28;20134;-75
2024/01/09 10:42:11;;;;;;;2.53;1.67;;;;;;;-4.33;100.00;103807.34;4991219;28;20938;-75
2024/01/09 10:45:00;;;;;;;4.40;2.47;;;;;;;-4.28;98.49;103805.97;5004107;28;20041;-74
2024/01/09 10:47:46;;;;;;;3.67;2.13;;;;;;;-4.21;99.04;103799.47;4995299;28;20056;-75
2024/01/09 10:50:32;;;;;;;3.63;1.80;;;;;;;-4.15;98.51;103802.44;4987856;28;20045;-74
2024/01/09 10:53:24;;;;;;;3.80;2.10;;;;;;;-4.09;96.87;103791.59;5004136;28;20099;-73
2024/01/09 10:56:10;;;;;;;3.77;2.10;;;;;;;-4.02;100.00;103790.28;5005680;28;20041;-74
2024/01/09 10:58:57;;;;;;;6.30;2.20;;;;;;;-3.98;98.50;103779.34;4999997;28;20119;-75
2024/01/09 11:01:43;;;;;;;4.93;2.00;;;;;;;-3.95;96.45;103782.09;4996937;28;20095;-74
2024/01/09 11:04:28;;;;;;;2.87;2.30;;;;;;;-3.90;97.44;103777.22;5041175;28;20044;-74
2024/01/09 11:07:16;;;;;;;3.33;2.27;;;;;;;-3.87;92.56;103772.25;5028276;28;20905;-74
2024/01/09 11:10:06;;;;;;;3.40;1.97;;;;;;;-3.85;92.85;103766.34;5038776;28;20045;-74
2024/01/09 11:12:52;;;;;;;2.77;2.07;;;;;;;-3.79;95.41;103765.81;5015664;28;20083;-73
2024/01/09 11:15:44;;;;;;;4.23;2.13;;;;;;;-3.74;95.82;103758.34;5021077;28;20033;-74
2024/01/09 11:18:32;;;;;;;4.33;2.10;;;;;;;-3.71;95.03;103764.59;5026670;28;20063;-74
2024/01/09 11:21:24;;;;;;;4.17;2.07;;;;;;;-3.67;93.24;103759.63;5001048;28;20456;-75
2024/01/09 11:24:10;;;;;;;2.20;1.70;;;;;;;-3.64;92.10;103752.94;5040001;28;20051;-74
2024/01/09 11:27:12;;;;;;;3.80;1.77;;;;;;;-3.58;93.32;103749.81;5042761;28;20056;-74
2024/01/09 11:30:01;;;;;;;2.67;1.60;;;;;;;-3.53;91.53;103753.56;5038581;28;20058;-74
2024/01/09 11:32:47;;;;;;;2.95;1.65;;;;;;;-3.52;94.12;103747.59;5040863;28;20387;-74
2024/01/09 11:35:37;;;;;;;3.13;1.60;;;;;;;-3.47;95.86;103748.75;5040409;28;20501;-74
2024/01/09 11:38:23;;;;;;;3.83;1.80;;;;;;;-3.41;96.82;103738.75;5031473;28;20577;-74
2024/01/09 11:41:09;;;;;;;2.42;1.83;;;;;;;-3.39;94.42;103738.84;5046967;28;20439;-74
2024/01/09 11:44:00;;;;;;;2.07;1.80;;;;;;;-3.33;94.90;103743.50;5028170;28;20048;-74
2024/01/09 11:46:49;;;;;;;4.35;1.60;;;;;;;-3.28;93.48;103730.00;5027272;28;20059;-75
2024/01/09 11:49:35;;;;;;;2.45;1.52;;;;;;;-3.24;89.81;103728.47;5031406;28;20476;-74
2024/01/09 11:52:21;;;;;;;3.53;1.85;;;;;;;-3.21;89.83;103733.84;5043803;28;20048;-74
2024/01/09 11:55:07;;;;;;;2.78;1.80;;;;;;;-3.19;90.87;103729.66;5039271;28;20059;-75
2024/01/09 11:57:53;;;;;;;3.25;1.70;;;;;;;-3.15;89.91;103722.94;5032653;28;20048;-75
2024/01/09 12:00:39;;;;;;;4.93;1.70;;;;;;;-3.06;88.25;103722.59;5039960;28;20037;-75
2024/01/09 12:03:25;;;;;;;2.60;1.48;;;;;;;-3.02;86.54;103727.13;5044460;28;20057;-74
2024/01/09 12:06:11;;;;;;;3.25;1.63;;;;;;;-3.00;87.94;103725.50;5038626;28;20052;-75
2024/01/09 12:08:57;;;;;;;4.00;1.70;;;;;;;-2.98;87.24;103713.56;5041085;28;20044;-74
2024/01/09 12:11:42;;;;;;;2.00;1.50;;;;;;;-2.94;87.10;103715.50;5027653;28;20041;-74
2024/01/09 12:14:28;;;;;;;2.17;1.40;;;;;;;-2.90;88.30;103712.28;5040169;28;20052;-74
2024/01/09 12:17:23;;;;;;;3.70;1.50;;;;;;;-2.84;88.10;103700.47;5027138;28;20041;-76
2024/01/09 12:20:10;;;;;;;1.30;1.20;;;;;;;-2.78;85.32;103704.28;5025620;28;20069;-74
2024/01/09 12:22:56;;;;;;;1.63;1.45;;;;;;;-2.72;89.72;103708.94;5040858;28;20044;-74
2024/01/09 12:25:47;;;;;;;2.97;1.70;;;;;;;-2.66;90.44;103698.00;5040150;28;20083;-74
2024/01/09 12:28:33;;;;;;;2.55;1.52;;;;;;;-2.65;90.64;103700.69;5042152;28;20695;-74
2024/01/09 12:31:22;;;;;;;2.47;1.75;;;;;;;-2.64;91.65;103694.69;5016359;28;20055;-74
2024/01/09 12:34:08;;;;;;;1.73;1.42;;;;;;;-2.63;92.21;103691.28;5041243;28;20537;-73
2024/01/09 12:36:54;;;;;;;2.90;1.67;;;;;;;-2.62;91.58;103684.41;5025872;28;20040;-74
2024/01/09 12:39:40;;;;;;;1.92;1.50;;;;;;;-2.58;92.42;103691.53;5042484;28;20076;-74
2024/01/09 12:42:26;;;;;;;1.90;1.52;;;;;;;-2.55;90.86;103688.22;5028230;28;20036;-74
2024/01/09 12:45:12;;;;;;;2.22;1.67;;;;;;;-2.53;89.88;103686.59;5038922;28;20179;-75
2024/01/09 12:47:57;;;;;;;2.63;1.52;;;;;;;-2.53;87.41;103678.81;5040899;28;20037;-74